Time;durP1;ratioP1;P1;durP2;ratioP2;P2;SDS_P1;SDS_P2;PMS_P1;PMS_P2;Temp;Humidity;BMP_temperature;BMP_pressure;BME280_temperature;BME280_humidity;BME280_pressure;Samples;Min_cycle;Max_cycle;Signal;HPM_P1;HPM_P2
2024/04/05 00:00:48;;;;;;;2.28;0.55;;;12.60;99.90;;;;;;4841737;29;20106;-89
2024/04/05 00:03:17;;;;;;;2.28;0.50;;;12.60;99.90;;;;;;4833709;29;20529;-88
2024/04/05 00:05:43;;;;;;;0.98;0.45;;;12.60;99.90;;;;;;4838245;29;20036;-91
2024/04/05 00:08:11;;;;;;;3.50;0.70;;;12.60;99.90;;;;;;4839158;29;20128;-92
2024/04/05 00:10:40;;;;;;;1.70;0.30;;;12.60;99.90;;;;;;4831758;29;20580;-88
2024/04/05 00:13:08;;;;;;;1.67;0.40;;;12.60;99.90;;;;;;4838235;29;20125;-88
2024/04/05 00:15:39;;;;;;;1.13;0.32;;;12.60;99.90;;;;;;4840547;29;20580;-89
2024/04/05 00:18:06;;;;;;;3.25;0.60;;;12.60;99.90;;;;;;4841920;29;20049;-91
2024/04/05 00:20:33;;;;;;;2.38;0.45;;;12.60;99.90;;;;;;4848743;29;20033;-88
2024/04/05 00:23:01;;;;;;;2.20;0.70;;;12.60;99.90;;;;;;4833968;29;20045;-87
2024/04/05 00:25:28;;;;;;;1.50;0.30;;;12.60;99.90;;;;;;4833058;29;20045;-94
2024/04/05 00:27:57;;;;;;;0.88;0.30;;;12.60;99.90;;;;;;4835650;29;20498;-90
2024/04/05 00:30:23;;;;;;;1.83;0.30;;;12.60;99.90;;;;;;4844386;29;20049;-91
2024/04/05 00:32:52;;;;;;;1.90;0.50;;;12.60;99.90;;;;;;4834445;29;20038;-88
2024/04/05 00:35:19;;;;;;;2.65;0.60;;;12.60;99.90;;;;;;4852693;29;20052;-91
2024/04/05 00:37:47;;;;;;;1.25;0.35;;;12.50;99.90;;;;;;4839954;29;20064;-89
2024/04/05 00:40:13;;;;;;;1.75;0.38;;;12.60;99.90;;;;;;4836968;29;20110;-90
2024/04/05 00:42:42;;;;;;;1.33;0.40;;;12.60;99.90;;;;;;4855814;29;20177;-91
2024/04/05 00:45:10;;;;;;;1.23;0.30;;;12.60;99.90;;;;;;4835395;29;20490;-90
2024/04/05 00:47:37;;;;;;;0.95;0.30;;;12.60;99.90;;;;;;4832585;29;20144;-93
2024/04/05 00:50:06;;;;;;;1.95;0.32;;;12.60;99.90;;;;;;4844439;29;20048;-88
2024/04/05 00:52:34;;;;;;;0.98;0.30;;;12.50;99.90;;;;;;4838115;29;20689;-88
2024/04/05 00:55:01;;;;;;;1.42;0.35;;;12.50;99.90;;;;;;4834291;29;20140;-91
2024/04/05 00:57:28;;;;;;;2.53;0.40;;;12.60;99.90;;;;;;4847577;29;20041;-89
2024/04/05 00:59:56;;;;;;;5.60;0.95;;;12.60;99.90;;;;;;4835719;29;20049;-93
2024/04/05 01:02:25;;;;;;;2.15;0.60;;;12.60;99.90;;;;;;4838398;29;20050;-89
2024/04/05 01:04:52;;;;;;;2.35;0.32;;;12.50;99.90;;;;;;4842260;29;20037;-88
2024/04/05 01:07:19;;;;;;;3.13;0.40;;;12.50;99.90;;;;;;4850759;29;20039;-90
2024/04/05 01:09:46;;;;;;;1.67;0.52;;;12.60;99.90;;;;;;4851464;29;20045;-89
2024/04/05 01:12:14;;;;;;;1.88;0.30;;;12.50;99.90;;;;;;4853736;29;20057;-90
2024/04/05 01:14:41;;;;;;;1.67;0.57;;;12.50;99.90;;;;;;4836332;29;20069;-90
2024/04/05 01:17:09;;;;;;;1.17;0.40;;;12.50;99.90;;;;;;4848723;29;20052;-89
2024/04/05 01:19:37;;;;;;;2.50;0.30;;;12.50;99.90;;;;;;4839585;29;20136;-88
2024/04/05 01:22:11;;;;;;;2.67;0.40;;;12.50;99.90;;;;;;4835096;29;20053;-90
2024/04/05 01:24:40;;;;;;;1.88;0.30;;;12.40;99.90;;;;;;4852483;29;20079;-88
2024/04/05 01:27:09;;;;;;;1.27;0.30;;;12.40;99.90;;;;;;4841102;29;20087;-90
2024/04/05 01:29:35;;;;;;;2.55;0.65;;;12.40;99.90;;;;;;4831993;29;20053;-88
2024/04/05 01:32:04;;;;;;;2.15;0.40;;;12.40;99.90;;;;;;4840738;29;20502;-83
2024/04/05 01:34:31;;;;;;;1.60;0.77;;;12.40;99.90;;;;;;4849303;29;20088;-87
2024/04/05 01:36:59;;;;;;;5.32;0.47;;;12.40;99.90;;;;;;4837291;29;20045;-87
2024/04/05 01:39:26;;;;;;;1.05;0.50;;;12.40;99.90;;;;;;4834568;29;20044;-87
2024/04/05 01:41:56;;;;;;;1.30;0.40;;;12.40;99.90;;;;;;4831981;29;20433;-88
2024/04/05 01:44:22;;;;;;;1.90;0.40;;;12.40;99.90;;;;;;4850765;29;20058;-87
2024/04/05 01:46:51;;;;;;;0.95;0.40;;;12.40;99.90;;;;;;4830226;29;20158;-89
2024/04/05 01:49:18;;;;;;;1.13;0.50;;;12.30;99.90;;;;;;4840164;29;20048;-87
2024/04/05 01:51:46;;;;;;;2.03;0.90;;;12.20;99.90;;;;;;4838039;29;20064;-89
2024/04/05 01:54:13;;;;;;;2.42;0.60;;;12.20;99.90;;;;;;4838106;29;20045;-89
2024/04/05 01:56:40;;;;;;;1.80;0.40;;;12.10;99.90;;;;;;4835026;29;20132;-89
2024/04/05 01:59:09;;;;;;;1.42;0.60;;;12.20;99.90;;;;;;4838390;29;20064;-89
2024/04/05 02:01:37;;;;;;;1.92;0.50;;;12.10;99.90;;;;;;4837343;29;20053;-90
2024/04/05 02:04:04;;;;;;;3.03;0.70;;;12.10;99.90;;;;;;4837133;29;20565;-88
2024/04/05 02:06:32;;;;;;;1.45;0.50;;;12.10;99.90;;;;;;4830286;29;20082;-89
2024/04/05 02:08:59;;;;;;;1.00;0.50;;;12.10;99.90;;;;;;4836170;29;20053;-84
2024/04/05 02:11:28;;;;;;;1.60;0.60;;;12.00;99.90;;;;;;4859379;29;20045;-89
2024/04/05 02:13:55;;;;;;;2.10;1.00;;;12.00;99.90;;;;;;4834224;29;20076;-88
2024/04/05 02:16:26;;;;;;;2.65;0.95;;;12.00;99.90;;;;;;4839820;29;20088;-86
2024/04/05 02:18:53;;;;;;;1.60;0.57;;;12.00;99.90;;;;;;4831107;29;20041;-89
2024/04/05 02:21:21;;;;;;;3.10;1.10;;;11.90;99.90;;;;;;4834051;29;20635;-90
2024/04/05 02:23:48;;;;;;;2.00;0.90;;;11.90;99.90;;;;;;4835058;29;20041;-89
2024/04/05 02:26:16;;;;;;;4.47;1.50;;;11.90;99.90;;;;;;4838507;29;20042;-88
2024/04/05 02:28:42;;;;;;;4.28;1.40;;;11.90;99.90;;;;;;4851899;29;20041;-87
2024/04/05 02:31:10;;;;;;;5.13;1.80;;;11.80;99.90;;;;;;4853698;29;20056;-90
2024/04/05 02:33:38;;;;;;;3.80;1.52;;;11.80;99.90;;;;;;4838488;29;20041;-89
2024/04/05 02:36:06;;;;;;;1.65;0.85;;;11.80;99.90;;;;;;4837372;29;20040;-89
2024/04/05 02:38:33;;;;;;;1.65;0.80;;;11.60;99.90;;;;;;4839361;29;20056;-89
2024/04/05 02:41:04;;;;;;;2.40;0.80;;;11.80;99.90;;;;;;4837135;29;20508;-88
2024/04/05 02:43:31;;;;;;;1.60;0.80;;;11.70;99.90;;;;;;4846467;29;20152;-88
2024/04/05 02:45:58;;;;;;;2.38;1.05;;;11.70;99.90;;;;;;4841130;29;20144;-88
2024/04/05 02:48:25;;;;;;;2.58;1.10;;;11.60;99.90;;;;;;4853411;29;20141;-89
2024/04/05 02:50:54;;;;;;;3.08;0.90;;;11.60;99.90;;;;;;4850107;29;20137;-89
2024/04/05 02:53:23;;;;;;;2.30;1.23;;;11.60;99.90;;;;;;4855757;29;20050;-90
2024/04/05 02:55:51;;;;;;;3.40;0.95;;;11.50;99.90;;;;;;4849264;29;20068;-88
2024/04/05 02:58:17;;;;;;;3.55;1.08;;;11.50;99.90;;;;;;4847614;29;20501;-89
2024/04/05 03:00:46;;;;;;;2.38;1.20;;;11.50;99.90;;;;;;4839530;29;20057;-89
2024/04/05 03:03:12;;;;;;;3.03;1.45;;;11.50;99.90;;;;;;4836355;29;20065;-89
2024/04/05 03:05:40;;;;;;;2.15;1.23;;;11.40;99.90;;;;;;4839790;29;20042;-88
2024/04/05 03:08:08;;;;;;;2.72;1.50;;;11.50;99.90;;;;;;4846147;29;20075;-87
2024/04/05 03:10:35;;;;;;;2.80;1.23;;;11.40;99.90;;;;;;4831849;29;20097;-88
2024/04/05 03:13:02;;;;;;;6.47;2.15;;;11.40;99.90;;;;;;4837059;29;20037;-88
2024/04/05 03:15:30;;;;;;;43.35;14.77;;;11.30;99.90;;;;;;4850265;29;20167;-86
2024/04/05 03:17:57;;;;;;;53.53;18.05;;;11.30;99.90;;;;;;4846321;29;20038;-87
2024/04/05 03:20:24;;;;;;;43.97;15.23;;;11.30;99.90;;;;;;4845711;29;20041;-86
2024/04/05 03:22:51;;;;;;;38.50;14.00;;;11.20;99.90;;;;;;4842030;29;20192;-90
2024/04/05 03:25:20;;;;;;;50.88;18.00;;;11.20;99.90;;;;;;4849668;29;20037;-89
2024/04/05 03:27:47;;;;;;;45.30;16.58;;;11.20;99.90;;;;;;4846831;29;20049;-88
2024/04/05 03:30:16;;;;;;;44.35;15.13;;;11.20;99.90;;;;;;4839748;29;20050;-85
2024/04/05 03:32:43;;;;;;;31.80;12.82;;;11.20;99.90;;;;;;4850026;29;20055;-89
2024/04/05 03:35:10;;;;;;;36.83;13.27;;;11.10;99.90;;;;;;4854737;29;20044;-91
2024/04/05 03:37:38;;;;;;;33.58;14.40;;;11.10;99.90;;;;;;4833234;29;20133;-87
2024/04/05 03:40:07;;;;;;;47.72;16.92;;;11.10;99.90;;;;;;4840227;29;20139;-88
2024/04/05 03:42:36;;;;;;;20.85;9.77;;;11.00;99.90;;;;;;4851227;29;20065;-88
2024/04/05 03:45:05;;;;;;;9.13;4.47;;;10.90;99.90;;;;;;4842821;29;20076;-90
2024/04/05 03:47:32;;;;;;;9.63;4.72;;;10.90;99.90;;;;;;4830683;29;20050;-89
2024/04/05 03:49:59;;;;;;;13.07;5.25;;;10.80;99.90;;;;;;4833447;29;20041;-86
2024/04/05 03:52:27;;;;;;;6.18;2.63;;;10.90;99.90;;;;;;4838244;29;20529;-90
2024/04/05 03:54:53;;;;;;;4.03;2.20;;;10.70;99.90;;;;;;4865079;29;20037;-89
2024/04/05 03:57:21;;;;;;;8.13;3.40;;;10.80;99.90;;;;;;4845603;29;20478;-86
2024/04/05 03:59:49;;;;;;;5.95;3.30;;;10.70;99.90;;;;;;4850242;29;20041;-90
2024/04/05 04:02:17;;;;;;;5.22;2.40;;;10.70;99.90;;;;;;4852498;29;20033;-90
2024/04/05 04:04:44;;;;;;;3.88;2.20;;;10.60;99.90;;;;;;4849120;29;20058;-89
2024/04/05 04:07:11;;;;;;;2.90;1.70;;;10.60;99.90;;;;;;4852972;29;20041;-90
2024/04/05 04:09:38;;;;;;;3.65;2.00;;;10.70;99.90;;;;;;4846446;29;20041;-89
2024/04/05 04:12:08;;;;;;;3.50;1.67;;;10.70;99.90;;;;;;4837657;29;20410;-90
2024/04/05 04:14:38;;;;;;;6.13;2.10;;;10.70;99.90;;;;;;4851141;29;20050;-90
2024/04/05 04:17:07;;;;;;;2.75;1.55;;;10.70;99.90;;;;;;4838976;29;20049;-90
2024/04/05 04:19:35;;;;;;;5.45;2.30;;;10.80;99.90;;;;;;4832879;29;20127;-86
2024/04/05 04:22:02;;;;;;;3.85;1.73;;;10.60;99.90;;;;;;4831036;29;20049;-86
2024/04/05 04:24:31;;;;;;;2.72;1.83;;;10.70;99.90;;;;;;4837637;29;20131;-89
2024/04/05 04:26:58;;;;;;;3.35;1.60;;;10.70;99.90;;;;;;4837323;29;20037;-90
2024/04/05 04:29:26;;;;;;;3.50;2.20;;;10.70;99.90;;;;;;4836933;29;20068;-88
2024/04/05 04:31:53;;;;;;;3.83;2.17;;;10.70;99.90;;;;;;4851896;29;20137;-90
2024/04/05 04:34:23;;;;;;;2.88;2.05;;;10.70;99.90;;;;;;4849632;29;20052;-89
2024/04/05 04:36:50;;;;;;;3.03;2.00;;;10.40;99.90;;;;;;4837806;29;20045;-89
2024/04/05 04:39:18;;;;;;;3.85;1.95;;;10.70;99.90;;;;;;4842612;29;20037;-87
2024/04/05 04:41:45;;;;;;;5.00;2.15;;;10.70;99.90;;;;;;4836391;29;20045;-89
2024/04/05 04:44:13;;;;;;;5.63;2.75;;;10.70;99.90;;;;;;4833250;29;20056;-87
2024/04/05 04:46:40;;;;;;;6.10;2.95;;;10.60;99.90;;;;;;4834830;29;20048;-88
2024/04/05 04:49:10;;;;;;;3.65;2.08;;;10.60;99.90;;;;;;4834234;29;20044;-87
2024/04/05 04:51:38;;;;;;;5.72;2.08;;;10.60;99.90;;;;;;4847529;29;20137;-87
2024/04/05 04:54:06;;;;;;;4.63;2.58;;;10.60;99.90;;;;;;4856793;29;20109;-88
2024/04/05 04:56:33;;;;;;;5.45;3.17;;;10.60;99.90;;;;;;4837534;29;20052;-87
2024/04/05 04:59:02;;;;;;;15.98;7.78;;;10.70;99.90;;;;;;4846535;29;20038;-87
2024/04/05 05:01:29;;;;;;;13.45;6.45;;;10.70;99.90;;;;;;4848096;29;20098;-89
2024/04/05 05:03:57;;;;;;;12.02;5.70;;;10.60;99.90;;;;;;4831882;29;20049;-84
2024/04/05 05:06:24;;;;;;;9.35;5.60;;;10.70;99.90;;;;;;4831219;29;20044;-88
2024/04/05 05:08:53;;;;;;;9.43;4.03;;;10.70;99.90;;;;;;4832663;29;20102;-87
2024/04/05 05:11:20;;;;;;;10.15;4.30;;;10.70;99.90;;;;;;4846756;29;20049;-86
2024/04/05 05:13:50;;;;;;;8.07;4.68;;;10.70;99.90;;;;;;4837518;29;20056;-86
2024/04/05 05:16:18;;;;;;;7.57;4.78;;;10.70;99.90;;;;;;4827691;29;20545;-86
2024/04/05 05:18:47;;;;;;;9.55;4.90;;;10.80;99.90;;;;;;4839172;29;20041;-86
2024/04/05 05:21:14;;;;;;;10.52;5.07;;;10.80;99.90;;;;;;4843014;29;20049;-90
2024/04/05 05:23:42;;;;;;;10.52;5.38;;;10.80;99.90;;;;;;4852419;29;20052;-87
2024/04/05 05:26:10;;;;;;;8.07;4.63;;;10.90;99.90;;;;;;4827689;29;20038;-87
2024/04/05 05:28:39;;;;;;;10.10;5.80;;;10.90;99.90;;;;;;4833600;29;20060;-89
2024/04/05 05:31:06;;;;;;;7.75;4.97;;;11.00;99.90;;;;;;4834638;29;20509;-86
2024/04/05 05:33:34;;;;;;;8.95;5.28;;;11.00;99.90;;;;;;4833153;29;20529;-89
2024/04/05 05:36:00;;;;;;;12.27;6.25;;;11.10;99.90;;;;;;4833204;29;20053;-87
2024/04/05 05:38:28;;;;;;;9.40;5.75;;;11.10;99.90;;;;;;4832123;29;20049;-89
2024/04/05 05:40:55;;;;;;;12.77;5.93;;;11.20;99.90;;;;;;4829852;29;20888;-88
2024/04/05 05:43:24;;;;;;;8.20;4.70;;;11.20;99.90;;;;;;4832122;29;20061;-85
2024/04/05 05:45:51;;;;;;;7.60;5.20;;;11.30;99.90;;;;;;4832474;29;20053;-88
2024/04/05 05:48:19;;;;;;;9.57;5.68;;;11.30;99.90;;;;;;4841340;29;20045;-87
2024/04/05 05:50:46;;;;;;;10.88;5.57;;;11.40;99.90;;;;;;4816386;29;20049;-90
2024/04/05 05:53:14;;;;;;;16.08;7.25;;;11.50;99.90;;;;;;4837010;29;20429;-88
2024/04/05 05:55:41;;;;;;;11.88;7.13;;;11.50;99.90;;;;;;4834963;29;20571;-89
2024/04/05 05:58:09;;;;;;;14.85;8.18;;;11.60;99.90;;;;;;4855205;29;20410;-85
2024/04/05 06:00:37;;;;;;;14.32;8.85;;;11.70;99.90;;;;;;4835538;29;20041;-89
2024/04/05 06:03:07;;;;;;;13.60;8.35;;;11.80;99.90;;;;;;4835941;29;20096;-88
2024/04/05 06:05:33;;;;;;;12.95;7.40;;;11.80;99.90;;;;;;4835309;29;20056;-88
2024/04/05 06:08:04;;;;;;;11.50;7.22;;;12.00;99.90;;;;;;4849849;29;20152;-87
2024/04/05 06:10:31;;;;;;;14.35;8.93;;;12.10;99.90;;;;;;4850985;29;20053;-89
2024/04/05 06:12:59;;;;;;;14.35;7.45;;;12.10;99.90;;;;;;4854870;29;20525;-89
2024/04/05 06:15:25;;;;;;;10.50;6.65;;;12.20;99.90;;;;;;4842042;29;20060;-86
2024/04/05 06:17:56;;;;;;;13.52;7.90;;;12.40;99.90;;;;;;4849727;29;20069;-86
2024/04/05 06:20:23;;;;;;;15.05;8.82;;;12.40;99.90;;;;;;4852372;29;20108;-88
2024/04/05 06:22:51;;;;;;;17.08;9.63;;;12.60;99.90;;;;;;4837859;29;20538;-87
2024/04/05 06:25:22;;;;;;;17.30;9.57;;;12.70;99.90;;;;;;4837699;29;20513;-89
2024/04/05 06:27:50;;;;;;;19.77;11.25;;;12.80;99.90;;;;;;4837963;29;20050;-88
2024/04/05 06:30:19;;;;;;;21.13;12.70;;;12.90;99.90;;;;;;4850264;29;20071;-89
2024/04/05 06:32:46;;;;;;;28.75;13.95;;;13.00;99.90;;;;;;4841694;29;20037;-89
2024/04/05 06:35:16;;;;;;;26.20;14.57;;;13.10;99.90;;;;;;4852493;29;20320;-88
2024/04/05 06:37:43;;;;;;;19.38;12.48;;;13.20;99.90;;;;;;4835316;29;20055;-87
2024/04/05 06:40:12;;;;;;;21.05;12.68;;;13.30;99.90;;;;;;4855450;29;20052;-87
2024/04/05 06:42:39;;;;;;;16.65;10.48;;;13.30;99.90;;;;;;4838309;29;20459;-89
2024/04/05 06:45:08;;;;;;;16.75;10.15;;;13.40;99.90;;;;;;4841358;29;20067;-87
2024/04/05 06:47:35;;;;;;;17.00;10.23;;;13.50;99.90;;;;;;4851762;29;20069;-88
2024/04/05 06:50:05;;;;;;;16.58;10.45;;;13.60;99.90;;;;;;4845065;29;20045;-88
2024/04/05 06:52:33;;;;;;;14.52;10.07;;;13.60;99.90;;;;;;4848432;29;20084;-88
2024/04/05 06:55:03;;;;;;;19.15;10.88;;;13.90;99.90;;;;;;4853311;29;20049;-88
2024/04/05 06:57:30;;;;;;;15.93;9.55;;;14.00;99.90;;;;;;4834545;29;20582;-88
2024/04/05 06:59:58;;;;;;;14.20;9.60;;;14.10;99.90;;;;;;4834835;29;20064;-87
2024/04/05 07:02:25;;;;;;;19.15;11.45;;;14.20;99.90;;;;;;4832841;29;20053;-88
2024/04/05 07:04:53;;;;;;;17.00;8.98;;;14.30;99.90;;;;;;4840502;29;20131;-87
2024/04/05 07:07:20;;;;;;;14.20;8.85;;;14.20;99.90;;;;;;4837064;29;20140;-87
2024/04/05 07:09:50;;;;;;;11.88;7.63;;;14.30;99.90;;;;;;4850638;29;20582;-88
2024/04/05 07:12:17;;;;;;;11.88;8.15;;;14.40;99.90;;;;;;4851676;29;20073;-87
2024/04/05 07:14:45;;;;;;;9.70;6.70;;;14.50;99.90;;;;;;4846544;29;20486;-89
2024/04/05 07:17:12;;;;;;;11.13;6.75;;;14.50;99.90;;;;;;4826954;29;20040;-88
2024/04/05 07:19:40;;;;;;;10.40;6.05;;;14.70;99.90;;;;;;4838336;29;20146;-89
2024/04/05 07:22:09;;;;;;;9.25;5.75;;;14.80;99.90;;;;;;4837210;29;21093;-83
2024/04/05 07:24:37;;;;;;;10.93;5.68;;;14.90;99.90;;;;;;4837240;29;20067;-85
2024/04/05 07:27:05;;;;;;;8.77;4.78;;;15.00;99.90;;;;;;4837997;29;20540;-87
2024/04/05 07:29:33;;;;;;;8.38;5.22;;;15.20;99.90;;;;;;4840041;29;20056;-87
2024/04/05 07:32:00;;;;;;;7.40;4.60;;;15.30;99.90;;;;;;4834873;29;20049;-85
2024/04/05 07:34:27;;;;;;;9.07;4.53;;;15.50;99.90;;;;;;4847230;29;20065;-86
2024/04/05 07:36:54;;;;;;;9.27;4.10;;;15.10;99.90;;;;;;4842463;29;20044;-86
2024/04/05 07:39:22;;;;;;;7.45;4.93;;;15.50;99.90;;;;;;4838769;29;20128;-86
2024/04/05 07:41:49;;;;;;;7.13;4.38;;;15.70;99.90;;;;;;4838126;29;20517;-87
2024/04/05 07:44:19;;;;;;;6.00;3.63;;;15.80;99.90;;;;;;4839427;29;20505;-86
2024/04/05 07:46:46;;;;;;;7.57;3.65;;;15.90;99.90;;;;;;4822988;29;20064;-86
2024/04/05 07:49:13;;;;;;;6.20;3.45;;;15.80;99.90;;;;;;4825719;29;20044;-86
2024/04/05 07:51:40;;;;;;;5.18;3.55;;;15.80;99.90;;;;;;4838035;29;20132;-86
2024/04/05 07:54:11;;;;;;;5.38;3.50;;;15.90;99.90;;;;;;4850979;29;20514;-85
2024/04/05 07:56:38;;;;;;;5.30;3.20;;;16.10;99.90;;;;;;4850263;29;20093;-85
2024/04/05 07:59:06;;;;;;;6.88;3.00;;;16.20;99.90;;;;;;4840426;29;20506;-86
2024/04/05 08:01:34;;;;;;;5.28;3.13;;;16.20;99.90;;;;;;4829083;29;20537;-86
2024/04/05 08:04:03;;;;;;;5.93;2.50;;;16.30;99.90;;;;;;4850896;29;20067;-86
2024/04/05 08:06:30;;;;;;;4.68;2.63;;;16.30;99.90;;;;;;4848521;29;20049;-84
2024/04/05 08:08:57;;;;;;;4.00;2.70;;;16.50;99.90;;;;;;4837020;29;20328;-86
2024/04/05 08:11:24;;;;;;;3.30;1.85;;;16.60;99.90;;;;;;4837169;29;20042;-85
2024/04/05 08:13:52;;;;;;;3.38;2.17;;;16.70;99.90;;;;;;4844571;29;20049;-83
2024/04/05 08:16:18;;;;;;;3.20;2.13;;;17.20;99.90;;;;;;4836987;29;20065;-86
2024/04/05 08:18:47;;;;;;;2.72;1.55;;;17.00;99.90;;;;;;4837122;29;20785;-85
2024/04/05 08:21:14;;;;;;;6.38;1.20;;;17.10;99.90;;;;;;4837939;29;20097;-85
2024/04/05 08:23:44;;;;;;;1.70;1.00;;;17.20;99.90;;;;;;4840048;29;20041;-84
2024/04/05 08:26:11;;;;;;;3.78;1.40;;;17.30;99.90;;;;;;4852443;29;20450;-83
2024/04/05 08:28:39;;;;;;;3.75;1.65;;;17.20;99.90;;;;;;4848661;29;20056;-83
2024/04/05 08:31:06;;;;;;;5.95;1.90;;;17.30;99.90;;;;;;4837732;29;20554;-85
2024/04/05 08:33:35;;;;;;;2.90;1.40;;;17.40;99.90;;;;;;4832718;29;20096;-84
2024/04/05 08:36:03;;;;;;;2.53;1.00;;;17.40;99.90;;;;;;4831982;29;20174;-85
2024/04/05 08:38:31;;;;;;;1.80;0.70;;;17.50;99.90;;;;;;4842936;29;20050;-84
2024/04/05 08:40:58;;;;;;;2.45;0.70;;;17.60;99.90;;;;;;4839021;29;20090;-85
2024/04/05 08:43:28;;;;;;;3.17;0.93;;;17.70;99.90;;;;;;4842505;29;20051;-84
2024/04/05 08:45:55;;;;;;;2.95;0.90;;;17.50;99.90;;;;;;4841774;29;20057;-84
2024/04/05 08:48:23;;;;;;;2.83;0.70;;;17.70;99.90;;;;;;4840767;29;20068;-84
2024/04/05 08:50:49;;;;;;;4.63;0.88;;;17.80;99.90;;;;;;4850703;29;20449;-83
2024/04/05 08:53:18;;;;;;;3.58;0.70;;;17.80;99.90;;;;;;4843226;29;20116;-83
2024/04/05 08:55:46;;;;;;;1.88;0.60;;;17.90;99.90;;;;;;4832105;29;20041;-84
2024/04/05 08:58:15;;;;;;;1.58;0.55;;;17.80;99.90;;;;;;4833277;29;20037;-84
2024/04/05 09:00:42;;;;;;;1.63;0.60;;;17.80;99.90;;;;;;4843150;29;20116;-85
2024/04/05 09:03:11;;;;;;;2.58;0.63;;;17.90;99.90;;;;;;4847837;29;20037;-84
2024/04/05 09:05:38;;;;;;;1.63;0.55;;;18.00;99.90;;;;;;4834204;29;20124;-83
2024/04/05 09:08:08;;;;;;;2.35;0.60;;;17.80;99.90;;;;;;4837817;29;20049;-83
2024/04/05 09:10:36;;;;;;;3.22;0.55;;;17.90;99.90;;;;;;4838927;29;20049;-84
2024/04/05 09:13:05;;;;;;;4.47;1.00;;;18.30;99.90;;;;;;4830552;29;20101;-84
2024/04/05 09:15:32;;;;;;;1.63;0.20;;;18.30;99.90;;;;;;4849807;29;20518;-81
2024/04/05 09:18:00;;;;;;;0.77;0.20;;;18.50;99.90;;;;;;4838176;29;20038;-83
2024/04/05 09:20:29;;;;;;;1.23;0.30;;;18.40;99.90;;;;;;4833721;29;20117;-83
2024/04/05 09:23:01;;;;;;;3.78;0.50;;;18.50;99.90;;;;;;4852965;29;20065;-84
2024/04/05 09:25:28;;;;;;;2.30;0.40;;;18.40;99.90;;;;;;4848771;29;20103;-84
2024/04/05 09:28:16;;;;;;;1.73;0.28;;;18.60;99.90;;;;;;4837222;29;20049;-83
2024/04/05 09:30:43;;;;;;;3.55;0.20;;;18.70;99.90;;;;;;4852643;29;20052;-83
2024/04/05 09:33:19;;;;;;;1.38;0.30;;;18.60;99.20;;;;;;4845390;29;20064;-83
2024/04/05 09:35:47;;;;;;;4.85;0.22;;;18.70;99.20;;;;;;4840232;29;20136;-82
2024/04/05 09:38:16;;;;;;;2.35;0.30;;;18.90;99.90;;;;;;4841027;29;20044;-83
2024/04/05 09:40:43;;;;;;;1.77;0.47;;;18.80;98.10;;;;;;4834500;29;20980;-84
2024/04/05 09:43:13;;;;;;;1.85;0.25;;;18.90;99.90;;;;;;4838657;29;20053;-83
2024/04/05 09:45:42;;;;;;;1.23;0.20;;;18.90;98.90;;;;;;4853572;29;20060;-85
2024/04/05 09:48:12;;;;;;;3.50;0.65;;;19.10;99.80;;;;;;4858342;29;20059;-83
2024/04/05 09:50:40;;;;;;;2.00;0.20;;;19.30;99.90;;;;;;4838881;29;20512;-83
2024/04/05 09:53:09;;;;;;;2.40;0.30;;;19.40;99.80;;;;;;4845270;29;20450;-83
2024/04/05 09:55:39;;;;;;;3.10;0.40;;;19.40;99.90;;;;;;4838418;29;20037;-83
2024/04/05 09:58:08;;;;;;;2.50;0.30;;;18.90;97.20;;;;;;4844427;29;20124;-82
2024/04/05 10:00:38;;;;;;;4.22;0.40;;;18.80;97.40;;;;;;4836997;29;20680;-82
2024/04/05 10:03:06;;;;;;;1.40;0.20;;;19.10;99.70;;;;;;4859034;29;20505;-82
2024/04/05 10:05:33;;;;;;;1.98;0.10;;;19.50;99.90;;;;;;4851129;29;20392;-83
2024/04/05 10:08:12;;;;;;;1.60;0.17;;;19.60;97.70;;;;;;4846750;29;20042;-82
2024/04/05 10:10:40;;;;;;;1.52;0.65;;;19.60;93.70;;;;;;4835097;29;20389;-82
2024/04/05 10:13:15;;;;;;;4.22;0.15;;;20.00;95.00;;;;;;4835367;29;20042;-81
2024/04/05 10:15:54;;;;;;;3.28;0.40;;;20.20;93.40;;;;;;4836011;29;20314;-82
2024/04/05 10:18:26;;;;;;;1.13;0.10;;;20.00;92.30;;;;;;4853446;29;20192;-82
2024/04/05 10:21:01;;;;;;;1.08;0.10;;;20.20;94.70;;;;;;4853632;29;20045;-83
2024/04/05 10:23:29;;;;;;;1.83;0.10;;;20.40;94.60;;;;;;4835143;29;20056;-81
2024/04/05 10:25:56;;;;;;;3.17;0.10;;;20.40;94.70;;;;;;4840990;29;20053;-82
2024/04/05 10:28:24;;;;;;;1.23;0.10;;;20.30;93.30;;;;;;4849137;29;20037;-82
2024/04/05 10:30:52;;;;;;;1.30;0.10;;;20.40;93.90;;;;;;4840334;29;20104;-82
2024/04/05 10:33:21;;;;;;;1.05;0.45;;;20.40;93.10;;;;;;4856339;29;20041;-81
2024/04/05 10:35:48;;;;;;;0.85;0.17;;;20.50;91.40;;;;;;4856193;29;20491;-82
2024/04/05 10:38:17;;;;;;;3.70;0.25;;;20.20;91.50;;;;;;4828277;29;20041;-83
2024/04/05 10:40:44;;;;;;;1.98;0.40;;;20.40;92.30;;;;;;4849086;29;20054;-81
2024/04/05 10:43:13;;;;;;;1.35;0.17;;;20.60;90.90;;;;;;4836853;29;20098;-82
2024/04/05 10:45:41;;;;;;;0.80;0.20;;;20.20;90.20;;;;;;4839978;29;20042;-81
2024/04/05 10:48:10;;;;;;;3.17;0.25;;;20.10;91.60;;;;;;4847731;29;20136;-82
2024/04/05 10:50:37;;;;;;;1.77;0.13;;;19.80;89.80;;;;;;4833071;29;20489;-80
2024/04/05 10:53:06;;;;;;;2.20;0.30;;;20.10;92.30;;;;;;4838917;29;20045;-81
2024/04/05 10:55:32;;;;;;;2.25;0.20;;;20.00;91.60;;;;;;4840595;29;20049;-85
2024/04/05 10:58:04;;;;;;;1.52;0.15;;;20.30;92.30;;;;;;4854394;29;20041;-80
2024/04/05 11:00:32;;;;;;;0.65;0.20;;;20.40;92.50;;;;;;4831188;29;20051;-83
2024/04/05 11:03:00;;;;;;;2.20;0.10;;;20.20;92.30;;;;;;4849225;29;20053;-81
2024/04/05 11:05:28;;;;;;;1.75;0.20;;;20.00;91.70;;;;;;4838036;29;20755;-81
2024/04/05 11:08:00;;;;;;;1.77;0.10;;;20.30;92.50;;;;;;4832652;29;20050;-80
2024/04/05 11:10:30;;;;;;;2.28;0.17;;;20.20;91.50;;;;;;4850440;29;20101;-81
2024/04/05 11:12:58;;;;;;;1.58;0.60;;;20.00;91.40;;;;;;4827293;29;20045;-80
2024/04/05 11:15:25;;;;;;;0.75;0.10;;;20.20;90.90;;;;;;4836553;29;20045;-80
2024/04/05 11:18:01;;;;;;;1.45;0.10;;;20.30;91.70;;;;;;4838065;29;20174;-80
2024/04/05 11:20:31;;;;;;;1.25;0.10;;;20.60;91.70;;;;;;4828737;29;20045;-80
2024/04/05 11:23:03;;;;;;;2.20;0.20;;;20.40;92.80;;;;;;4836648;29;20049;-80
2024/04/05 11:25:31;;;;;;;2.20;0.40;;;20.80;93.40;;;;;;4834950;29;20076;-81
2024/04/05 11:27:59;;;;;;;3.60;0.32;;;21.10;91.80;;;;;;4847215;29;20137;-80
2024/04/05 11:30:27;;;;;;;2.17;0.20;;;21.30;91.20;;;;;;4827674;29;20049;-80
2024/04/05 11:32:55;;;;;;;2.83;0.20;;;21.30;90.50;;;;;;4852094;29;20052;-80
2024/04/05 11:35:22;;;;;;;1.92;0.40;;;21.40;89.40;;;;;;4831249;29;20136;-79
2024/04/05 11:37:51;;;;;;;3.83;0.20;;;21.50;90.10;;;;;;4830925;29;20043;-79
2024/04/05 11:40:19;;;;;;;2.55;0.20;;;21.50;88.60;;;;;;4852580;29;20038;-79
2024/04/05 11:42:47;;;;;;;1.35;0.13;;;21.80;88.50;;;;;;4837451;29;20037;-81
2024/04/05 11:45:14;;;;;;;2.15;0.20;;;21.50;86.00;;;;;;4829954;29;20053;-80
2024/04/05 11:47:43;;;;;;;1.10;0.20;;;21.50;87.20;;;;;;4836108;29;20043;-80
2024/04/05 11:50:10;;;;;;;2.55;0.50;;;21.40;85.70;;;;;;4832360;29;20054;-80
2024/04/05 11:52:38;;;;;;;2.28;0.20;;;20.90;85.20;;;;;;4829558;29;20128;-81
2024/04/05 11:55:08;;;;;;;2.72;0.20;;;21.00;84.20;;;;;;4830483;29;20654;-81
2024/04/05 11:57:36;;;;;;;1.55;0.10;;;21.00;85.10;;;;;;4846670;29;20075;-80
2024/04/05 12:00:10;;;;;;;0.98;0.30;;;21.10;84.30;;;;;;4844968;29;20045;-80
2024/04/05 12:02:41;;;;;;;2.95;0.30;;;21.30;83.00;;;;;;4842153;29;20053;-83
2024/04/05 12:05:08;;;;;;;1.40;0.30;;;21.50;82.90;;;;;;4837234;29;20084;-81
2024/04/05 12:07:37;;;;;;;3.25;0.20;;;21.50;81.80;;;;;;4835724;29;20053;-83
2024/04/05 12:10:07;;;;;;;2.17;0.20;;;21.60;81.00;;;;;;4836498;29;20049;-80
2024/04/05 12:12:35;;;;;;;2.42;0.50;;;21.60;81.50;;;;;;4815613;29;20046;-81
2024/04/05 12:15:03;;;;;;;2.10;0.10;;;21.90;81.70;;;;;;4848472;29;20042;-81
2024/04/05 12:17:31;;;;;;;1.58;0.10;;;21.90;82.10;;;;;;4835889;29;20063;-80
2024/04/05 12:19:58;;;;;;;1.63;0.10;;;21.90;81.20;;;;;;4838898;29;20045;-81
2024/04/05 12:22:26;;;;;;;3.60;0.65;;;21.80;81.60;;;;;;4829110;29;20049;-79
2024/04/05 12:24:53;;;;;;;2.55;0.10;;;21.60;79.70;;;;;;4829770;29;20033;-79
2024/04/05 12:27:22;;;;;;;2.30;0.10;;;21.40;79.60;;;;;;4844583;29;20061;-84
2024/04/05 12:29:49;;;;;;;2.08;0.20;;;20.90;80.00;;;;;;4848690;29;20041;-81
2024/04/05 12:32:17;;;;;;;2.72;0.30;;;20.70;81.60;;;;;;4833113;29;20123;-82
2024/04/05 12:34:45;;;;;;;2.92;0.20;;;20.50;82.60;;;;;;4842649;29;20060;-79
2024/04/05 12:37:21;;;;;;;3.00;0.30;;;20.50;83.90;;;;;;4830716;29;20742;-81
2024/04/05 12:39:49;;;;;;;1.52;0.10;;;19.90;82.50;;;;;;4846245;29;20042;-85
2024/04/05 12:42:17;;;;;;;1.42;0.10;;;20.60;81.00;;;;;;4850646;29;20052;-80
2024/04/05 12:44:47;;;;;;;2.08;0.50;;;20.80;81.10;;;;;;4832406;29;20061;-83
2024/04/05 12:47:15;;;;;;;3.20;0.28;;;21.00;80.80;;;;;;4833127;29;20053;-81